createdAt,value
2019-01-26T00:00:40.620Z,9.20
2019-01-26T00:03:20.328Z,10.60
2019-01-26T00:06:00.549Z,9.63
2019-01-26T00:08:40.472Z,10.45
2019-01-26T00:11:20.777Z,9.83
2019-01-26T00:14:00.965Z,12.40
2019-01-26T00:16:41.229Z,11.80
2019-01-26T00:19:21.436Z,10.80
2019-01-26T00:22:01.632Z,12.00
2019-01-26T00:24:41.704Z,11.35
2019-01-26T00:27:21.961Z,11.78
2019-01-26T00:30:01.973Z,11.63
2019-01-26T00:32:42.207Z,11.68
2019-01-26T00:35:22.392Z,11.08
2019-01-26T00:38:02.700Z,11.48
2019-01-26T00:40:42.866Z,10.60
2019-01-26T00:43:23.150Z,11.97
2019-01-26T00:46:03.249Z,11.93
2019-01-26T00:48:43.399Z,11.40
2019-01-26T00:51:23.473Z,12.55
2019-01-26T00:54:03.676Z,11.25
2019-01-26T00:56:43.594Z,11.05
2019-01-26T00:59:23.950Z,11.13
2019-01-26T01:02:04.119Z,11.20
2019-01-26T01:04:44.357Z,9.90
2019-01-26T01:07:24.576Z,10.20
2019-01-26T01:10:04.788Z,10.50
2019-01-26T01:12:44.778Z,10.50
2019-01-26T01:15:25.070Z,10.65
2019-01-26T01:18:05.361Z,10.58
2019-01-26T01:20:45.512Z,11.05
2019-01-26T01:23:25.585Z,9.60
2019-01-26T01:26:05.859Z,9.98
2019-01-26T01:28:45.981Z,11.00
2019-01-26T01:31:26.084Z,9.30
2019-01-26T01:34:06.357Z,8.75
2019-01-26T01:36:46.368Z,8.65
2019-01-26T01:39:26.702Z,8.40
2019-01-26T01:42:06.631Z,8.65
2019-01-26T01:44:46.792Z,8.40
2019-01-26T01:47:26.841Z,8.10
2019-01-26T01:50:06.973Z,8.15
2019-01-26T01:52:46.937Z,9.35
2019-01-26T01:55:26.998Z,7.92
2019-01-26T01:58:07.087Z,7.97
2019-01-26T02:00:47.053Z,8.30
2019-01-26T02:03:26.876Z,8.73
2019-01-26T02:06:06.857Z,7.37
2019-01-26T02:08:47.233Z,7.17
2019-01-26T02:11:27.208Z,6.28
2019-01-26T02:14:08.362Z,7.00
2019-01-26T02:16:50.140Z,7.28
2019-01-26T02:19:30.517Z,5.60
2019-01-26T02:22:10.516Z,6.30
2019-01-26T02:24:50.637Z,6.37
2019-01-26T02:27:31.048Z,6.78
2019-01-26T02:30:11.133Z,5.80
2019-01-26T02:32:51.360Z,5.83
2019-01-26T02:35:31.412Z,6.10
2019-01-26T02:38:11.512Z,6.53
2019-01-26T02:40:52.368Z,6.87
2019-01-26T02:43:32.729Z,6.70
2019-01-26T02:46:12.592Z,6.08
2019-01-26T02:48:52.793Z,6.60
2019-01-26T02:51:33.027Z,5.55
2019-01-26T02:54:13.105Z,5.60
2019-01-26T02:56:53.184Z,5.60
2019-01-26T02:59:33.256Z,4.40
2019-01-26T03:02:13.408Z,3.90
2019-01-26T03:04:57.440Z,3.37
2019-01-26T03:07:37.504Z,5.00
2019-01-26T03:10:19.335Z,4.28
2019-01-26T03:12:59.557Z,4.40
2019-01-26T03:15:41.530Z,3.67
2019-01-26T03:18:21.750Z,4.47
2019-01-26T03:21:01.722Z,3.80
2019-01-26T03:23:41.917Z,3.17
2019-01-26T03:26:21.915Z,4.05
2019-01-26T03:29:02.133Z,3.70
2019-01-26T03:31:42.348Z,3.77
2019-01-26T03:34:22.392Z,4.50
2019-01-26T03:37:02.505Z,4.00
2019-01-26T03:39:42.517Z,4.08
2019-01-26T03:42:22.481Z,3.90
2019-01-26T03:45:02.780Z,3.45
2019-01-26T03:47:42.980Z,3.47
2019-01-26T03:50:23.009Z,3.70
2019-01-26T03:53:03.152Z,3.83
2019-01-26T03:55:43.293Z,4.17
2019-01-26T03:58:23.619Z,3.65
2019-01-26T04:01:03.841Z,3.60
2019-01-26T04:03:43.932Z,3.10
2019-01-26T04:06:24.121Z,3.50
2019-01-26T04:09:04.428Z,3.10
2019-01-26T04:11:44.201Z,3.50
2019-01-26T04:14:24.347Z,1.87
2019-01-26T04:17:04.564Z,2.40
2019-01-26T04:19:44.761Z,2.60
2019-01-26T04:22:24.933Z,2.50
2019-01-26T04:25:05.205Z,1.60
2019-01-26T04:27:45.437Z,1.85
2019-01-26T04:30:25.621Z,2.00
2019-01-26T04:33:05.995Z,2.30
2019-01-26T04:35:46.228Z,1.97
2019-01-26T04:38:26.546Z,2.50
2019-01-26T04:41:06.579Z,2.10
2019-01-26T04:43:46.666Z,2.22
2019-01-26T04:46:26.777Z,2.30
2019-01-26T04:49:06.805Z,1.92
2019-01-26T04:51:46.802Z,2.20
2019-01-26T04:54:26.906Z,1.95
2019-01-26T04:57:07.076Z,2.00
2019-01-26T04:59:46.613Z,2.00
2019-01-26T05:02:27.016Z,1.90
2019-01-26T05:05:07.034Z,2.10
2019-01-26T05:07:47.124Z,1.95
2019-01-26T05:10:27.280Z,1.82
2019-01-26T05:13:07.469Z,1.70
2019-01-26T05:15:48.589Z,1.90
2019-01-26T05:18:28.679Z,1.45
2019-01-26T05:21:08.799Z,1.80
2019-01-26T05:23:48.938Z,1.60
2019-01-26T05:26:29.275Z,1.45
2019-01-26T05:29:09.447Z,1.70
2019-01-26T05:31:49.101Z,1.60
2019-01-26T05:34:29.110Z,1.45
2019-01-26T05:37:09.421Z,1.60
2019-01-26T05:39:49.465Z,1.65
2019-01-26T05:42:29.525Z,1.70
2019-01-26T05:45:09.445Z,1.42
2019-01-26T05:47:49.804Z,1.50
2019-01-26T05:50:29.750Z,1.17
2019-01-26T05:53:09.956Z,1.25
2019-01-26T05:55:50.324Z,1.20
2019-01-26T05:58:30.454Z,1.32
2019-01-26T06:01:10.705Z,1.30
2019-01-26T06:03:50.960Z,1.25
2019-01-26T06:06:31.176Z,1.20
2019-01-26T06:09:11.342Z,1.30
2019-01-26T06:11:51.485Z,1.30
2019-01-26T06:14:31.726Z,1.30
2019-01-26T06:17:11.813Z,1.02
2019-01-26T06:19:52.125Z,1.22
2019-01-26T06:22:32.149Z,1.00
2019-01-26T06:25:12.247Z,1.20
2019-01-26T06:27:52.092Z,1.20
2019-01-26T06:30:32.121Z,1.20
2019-01-26T06:33:12.236Z,1.10
2019-01-26T06:35:52.457Z,1.20
2019-01-26T06:38:32.553Z,1.32
2019-01-26T06:41:12.488Z,1.20
2019-01-26T06:43:52.649Z,1.40
2019-01-26T06:46:32.816Z,1.20
2019-01-26T06:49:12.949Z,1.50
2019-01-26T06:51:52.994Z,1.52
2019-01-26T06:54:33.109Z,1.50
2019-01-26T06:57:13.080Z,1.40
2019-01-26T06:59:53.172Z,1.70
2019-01-26T07:02:33.459Z,1.40
2019-01-26T07:05:15.501Z,1.32
2019-01-26T07:07:55.012Z,1.70
2019-01-26T07:10:35.044Z,1.60
2019-01-26T07:13:15.025Z,1.70
2019-01-26T07:15:56.665Z,1.50
2019-01-26T07:18:36.457Z,1.45
2019-01-26T07:21:16.533Z,1.30
2019-01-26T07:23:56.746Z,1.25
2019-01-26T07:26:36.800Z,1.30
2019-01-26T07:29:16.908Z,1.20
2019-01-26T07:31:56.927Z,1.43
2019-01-26T07:34:36.953Z,0.88
2019-01-26T07:37:17.085Z,1.30
2019-01-26T07:39:58.022Z,1.40
2019-01-26T07:42:38.485Z,1.27
2019-01-26T07:45:18.577Z,1.10
2019-01-26T07:47:58.765Z,1.10
2019-01-26T07:50:39.057Z,1.10
2019-01-26T07:53:19.140Z,1.00
2019-01-26T07:55:59.220Z,1.10
2019-01-26T07:58:39.230Z,0.60
2019-01-26T08:01:19.417Z,1.10
2019-01-26T08:03:59.598Z,1.40
2019-01-26T08:06:39.724Z,1.15
2019-01-26T08:09:20.005Z,0.72
2019-01-26T08:12:00.156Z,0.95
2019-01-26T08:14:40.234Z,1.10
2019-01-26T08:17:20.257Z,1.30
2019-01-26T08:20:00.453Z,1.37
2019-01-26T08:22:40.749Z,1.10
2019-01-26T08:25:20.778Z,1.40
2019-01-26T08:28:00.988Z,1.20
2019-01-26T08:30:40.981Z,0.80
2019-01-26T08:33:20.935Z,1.30
2019-01-26T08:36:00.888Z,0.80
2019-01-26T08:38:41.329Z,0.80
2019-01-26T08:41:22.646Z,1.27
2019-01-26T08:44:02.975Z,1.05
2019-01-26T08:46:43.137Z,1.10
2019-01-26T08:49:23.196Z,1.00
2019-01-26T08:52:03.149Z,1.40
2019-01-26T08:54:42.953Z,1.25
2019-01-26T08:57:22.940Z,2.10
2019-01-26T09:00:03.205Z,1.15
2019-01-26T09:03:02.948Z,0.98
2019-01-26T09:06:03.029Z,1.27
2019-01-26T09:08:43.468Z,0.90
2019-01-26T09:11:23.622Z,1.00
2019-01-26T09:14:03.769Z,0.90
2019-01-26T09:16:44.001Z,1.00
2019-01-26T09:19:24.326Z,1.10
2019-01-26T09:22:04.264Z,1.15
2019-01-26T09:24:44.444Z,1.20
2019-01-26T09:27:24.873Z,1.27
2019-01-26T09:30:04.794Z,0.90
2019-01-26T09:32:44.967Z,0.98
2019-01-26T09:35:24.917Z,1.27
2019-01-26T09:38:05.249Z,1.10
2019-01-26T09:40:45.601Z,1.30
2019-01-26T09:43:25.801Z,1.07
2019-01-26T09:46:05.828Z,1.00
2019-01-26T09:48:46.437Z,0.90
2019-01-26T09:51:26.254Z,0.90
2019-01-26T09:54:06.199Z,1.10
2019-01-26T09:56:46.190Z,1.05
2019-01-26T09:59:26.180Z,1.15
2019-01-26T10:02:06.076Z,0.90
2019-01-26T10:04:46.286Z,1.07
2019-01-26T10:07:26.642Z,1.05
2019-01-26T10:10:07.524Z,1.00
2019-01-26T10:12:46.983Z,1.00
2019-01-26T10:15:28.410Z,1.47
2019-01-26T10:18:08.473Z,1.37
2019-01-26T10:20:48.724Z,0.82
2019-01-26T10:23:28.786Z,1.05
2019-01-26T10:26:09.009Z,1.20
2019-01-26T10:28:49.337Z,1.10
2019-01-26T10:31:29.548Z,1.30
2019-01-26T10:34:09.744Z,1.00
2019-01-26T10:36:51.476Z,1.10
2019-01-26T10:39:30.911Z,1.00
2019-01-26T10:42:12.670Z,1.00
2019-01-26T10:44:52.873Z,1.20
2019-01-26T10:47:32.977Z,1.50
2019-01-26T10:50:13.281Z,1.82
2019-01-26T10:52:53.349Z,1.40
2019-01-26T10:55:33.713Z,1.00
2019-01-26T10:58:13.829Z,1.10
2019-01-26T11:00:54.082Z,1.20
2019-01-26T11:03:34.044Z,0.90
2019-01-26T11:06:14.152Z,1.30
2019-01-26T11:08:54.210Z,0.85
2019-01-26T11:11:34.333Z,0.90
2019-01-26T11:14:14.324Z,0.90
2019-01-26T11:16:54.391Z,1.15
2019-01-26T11:19:34.481Z,1.30
2019-01-26T11:22:14.867Z,1.20
2019-01-26T11:24:55.077Z,1.20
2019-01-26T11:27:35.070Z,0.90
2019-01-26T11:30:15.349Z,1.22
2019-01-26T11:32:55.565Z,1.45
2019-01-26T11:35:35.589Z,1.00
2019-01-26T11:38:15.781Z,1.20
2019-01-26T11:40:55.860Z,1.10
2019-01-26T11:43:36.057Z,1.30
2019-01-26T11:46:18.248Z,1.15
2019-01-26T11:48:58.636Z,1.22
2019-01-26T11:51:40.732Z,1.57
2019-01-26T11:54:21.148Z,1.10
2019-01-26T11:57:03.188Z,1.20
2019-01-26T11:59:44.741Z,2.42
2019-01-26T12:02:29.905Z,4.25
2019-01-26T12:05:06.633Z,6.80
2019-01-26T12:07:46.514Z,1.33
2019-01-26T12:10:26.565Z,1.40
2019-01-26T12:13:06.765Z,1.10
2019-01-26T12:18:33.907Z,0.98
2019-01-26T12:21:13.994Z,0.90
2019-01-26T12:23:54.162Z,1.10
2019-01-26T12:26:34.241Z,1.00
2019-01-26T12:29:13.646Z,1.00
2019-01-26T12:31:53.966Z,1.00
2019-01-26T12:34:34.000Z,1.37
2019-01-26T12:37:14.250Z,0.98
2019-01-26T12:39:55.068Z,1.20
2019-01-26T12:42:35.485Z,1.30
2019-01-26T12:45:15.698Z,1.00
2019-01-26T12:47:55.742Z,1.10
2019-01-26T12:50:35.736Z,1.05
2019-01-26T12:53:15.893Z,1.20
2019-01-26T12:55:55.744Z,1.10
2019-01-26T12:58:35.649Z,1.05
2019-01-26T13:01:15.746Z,1.00
2019-01-26T13:03:55.733Z,0.93
2019-01-26T13:06:35.900Z,1.25
2019-01-26T13:09:15.854Z,1.10
2019-01-26T13:11:56.077Z,1.00
2019-01-26T13:14:36.268Z,1.30
2019-01-26T13:17:16.345Z,1.10
2019-01-26T13:19:56.421Z,1.20
2019-01-26T13:22:36.436Z,1.00
2019-01-26T13:25:16.492Z,1.00
2019-01-26T13:27:56.465Z,1.00
2019-01-26T13:30:36.480Z,1.00
2019-01-26T13:33:16.554Z,1.20
2019-01-26T13:35:56.465Z,1.00
2019-01-26T13:38:36.745Z,1.10
2019-01-26T13:41:16.730Z,1.10
2019-01-26T13:43:56.694Z,1.25
2019-01-26T13:46:36.985Z,1.30
2019-01-26T13:49:17.209Z,1.60
2019-01-26T13:51:57.084Z,1.80
2019-01-26T13:54:37.344Z,2.33
2019-01-26T13:57:17.570Z,2.10
2019-01-26T13:59:57.676Z,2.00
2019-01-26T14:02:37.749Z,1.62
2019-01-26T14:05:18.125Z,1.60
2019-01-26T14:07:59.290Z,1.40
2019-01-26T14:10:39.342Z,1.40
2019-01-26T14:13:19.432Z,1.00
2019-01-26T14:15:59.672Z,1.40
2019-01-26T14:18:39.546Z,1.20
2019-01-26T14:21:19.689Z,1.20
2019-01-26T14:23:59.580Z,1.20
2019-01-26T14:26:39.888Z,1.30
2019-01-26T14:29:20.057Z,1.20
2019-01-26T14:32:00.177Z,1.12
2019-01-26T14:34:40.237Z,1.10
2019-01-26T14:37:20.182Z,1.20
2019-01-26T14:40:00.575Z,1.10
2019-01-26T14:42:40.728Z,1.30
2019-01-26T14:45:20.780Z,1.32
2019-01-26T14:48:01.073Z,1.20
2019-01-26T14:50:40.970Z,1.45
2019-01-26T14:53:21.247Z,1.35
2019-01-26T14:56:01.480Z,1.40
2019-01-26T14:58:41.735Z,1.40
2019-01-26T15:01:21.768Z,1.27
2019-01-26T15:04:01.865Z,3.72
2019-01-26T15:06:42.012Z,2.43
2019-01-26T15:09:22.148Z,2.62
2019-01-26T15:12:02.334Z,1.30
2019-01-26T15:14:42.531Z,1.37
2019-01-26T15:17:22.591Z,1.37
2019-01-26T15:20:05.940Z,1.45
2019-01-26T15:22:44.840Z,1.40
2019-01-26T15:25:25.118Z,1.90
2019-01-26T15:28:05.305Z,4.47
2019-01-26T15:30:45.559Z,3.95
2019-01-26T15:33:25.536Z,3.30
2019-01-26T15:36:09.159Z,1.50
2019-01-26T15:38:47.657Z,3.20
2019-01-26T15:41:27.705Z,1.50
2019-01-26T15:44:07.869Z,1.90
2019-01-26T15:46:47.916Z,1.10
2019-01-26T15:49:28.069Z,1.30
2019-01-26T15:52:08.495Z,1.67
2019-01-26T15:54:48.429Z,1.20
2019-01-26T15:57:28.481Z,1.40
2019-01-26T16:00:08.747Z,1.60
2019-01-26T16:02:48.851Z,1.32
2019-01-26T16:05:28.967Z,1.10
2019-01-26T16:08:09.188Z,1.27
2019-01-26T16:10:49.257Z,1.37
2019-01-26T16:13:29.413Z,1.40
2019-01-26T16:16:09.385Z,1.40
2019-01-26T16:18:49.638Z,1.10
2019-01-26T16:21:29.734Z,3.60
2019-01-26T16:24:09.811Z,1.60
2019-01-26T16:26:49.977Z,6.10
2019-01-26T16:29:30.221Z,1.70
2019-01-26T16:32:10.468Z,1.25
2019-01-26T16:34:50.830Z,1.60
2019-01-26T16:37:31.104Z,1.40
2019-01-26T16:40:11.174Z,1.40
2019-01-26T16:42:51.122Z,1.30
2019-01-26T16:45:31.577Z,1.30
2019-01-26T16:48:11.698Z,1.40
2019-01-26T16:50:51.886Z,1.50
2019-01-26T16:53:32.021Z,1.30
2019-01-26T16:56:12.213Z,1.10
2019-01-26T17:01:34.384Z,1.50
2019-01-26T17:04:14.364Z,1.40
2019-01-26T17:06:54.702Z,1.43
2019-01-26T17:09:34.968Z,1.40
2019-01-26T17:12:15.079Z,1.50
2019-01-26T17:14:55.049Z,1.80
2019-01-26T17:17:35.469Z,1.40
2019-01-26T17:20:15.569Z,1.40
2019-01-26T17:22:55.701Z,1.40
2019-01-26T17:25:35.862Z,1.30
2019-01-26T17:28:15.845Z,1.60
2019-01-26T17:30:55.829Z,1.45
2019-01-26T17:33:35.953Z,1.50
2019-01-26T17:36:16.177Z,1.57
2019-01-26T17:38:56.412Z,1.65
2019-01-26T17:41:36.907Z,1.50
2019-01-26T17:44:17.164Z,1.72
2019-01-26T17:46:57.330Z,1.47
2019-01-26T17:49:37.501Z,2.08
2019-01-26T17:52:17.507Z,2.00
2019-01-26T17:54:56.981Z,1.70
2019-01-26T17:57:37.353Z,1.60
2019-01-26T18:00:19.289Z,1.60
2019-01-26T18:02:59.565Z,1.73
2019-01-26T18:05:39.649Z,1.50
2019-01-26T18:08:19.922Z,1.67
2019-01-26T18:11:01.148Z,1.55
2019-01-26T18:13:41.518Z,1.35
2019-01-26T18:16:21.812Z,1.60
2019-01-26T18:19:02.040Z,1.40
2019-01-26T18:21:41.995Z,1.50
2019-01-26T18:24:22.198Z,1.50
2019-01-26T18:27:02.384Z,1.70
2019-01-26T18:29:42.491Z,1.30
2019-01-26T18:32:22.861Z,1.50
2019-01-26T18:35:02.926Z,1.75
2019-01-26T18:37:43.141Z,1.30
2019-01-26T18:40:23.217Z,1.30
2019-01-26T18:43:03.597Z,1.10
2019-01-26T18:45:43.857Z,1.35
2019-01-26T18:48:23.949Z,1.40
2019-01-26T18:51:04.253Z,1.50
2019-01-26T18:53:44.301Z,1.70
2019-01-26T18:56:25.605Z,1.87
2019-01-26T18:59:05.696Z,1.90
2019-01-26T19:01:45.827Z,1.90
2019-01-26T19:04:26.519Z,2.30
2019-01-26T19:07:06.173Z,2.02
2019-01-26T19:09:46.556Z,1.80
2019-01-26T19:12:26.841Z,1.50
2019-01-26T19:15:06.715Z,1.90
2019-01-26T19:17:47.014Z,1.90
2019-01-26T19:20:27.160Z,2.00
2019-01-26T19:23:07.372Z,1.90
2019-01-26T19:25:47.408Z,3.90
2019-01-26T19:28:27.634Z,2.40
2019-01-26T19:31:08.069Z,2.02
2019-01-26T19:33:48.310Z,2.00
2019-01-26T19:36:28.348Z,1.90
2019-01-26T19:39:08.668Z,1.90
2019-01-26T19:41:48.844Z,2.20
2019-01-26T19:44:29.241Z,1.90
2019-01-26T19:47:09.390Z,2.70
2019-01-26T19:49:49.533Z,1.90
2019-01-26T19:52:29.716Z,1.90
2019-01-26T19:55:09.762Z,1.90
2019-01-26T19:57:49.853Z,2.10
2019-01-26T20:00:30.045Z,1.90
2019-01-26T20:03:09.842Z,2.40
2019-01-26T20:05:50.117Z,5.87
2019-01-26T20:08:30.476Z,2.40
2019-01-26T20:11:10.912Z,2.37
2019-01-26T20:13:51.155Z,2.50
2019-01-26T20:16:36.374Z,3.00
2019-01-26T20:19:13.096Z,6.08
2019-01-26T20:21:57.516Z,9.38
2019-01-26T20:24:37.540Z,10.58
2019-01-26T20:27:17.753Z,23.05
2019-01-26T20:29:58.025Z,8.53
2019-01-26T20:32:38.307Z,14.05
2019-01-26T20:35:18.401Z,20.35
2019-01-26T20:37:58.511Z,30.77
2019-01-26T20:40:39.643Z,24.82
2019-01-26T20:43:19.593Z,14.65
2019-01-26T20:45:59.555Z,27.15
2019-01-26T20:48:40.724Z,46.75
2019-01-26T20:51:24.827Z,51.50
2019-01-26T20:54:02.933Z,10.48
2019-01-26T20:56:43.277Z,4.67
2019-01-26T20:59:23.845Z,15.23
2019-01-26T21:02:03.597Z,6.33
2019-01-26T21:04:43.588Z,5.08
2019-01-26T21:07:23.565Z,4.80
2019-01-26T21:10:03.564Z,4.15
2019-01-26T21:12:43.548Z,3.15
2019-01-26T21:15:23.705Z,3.30
2019-01-26T21:18:03.753Z,3.30
2019-01-26T21:20:43.811Z,3.67
2019-01-26T21:23:23.850Z,3.50
2019-01-26T21:26:03.960Z,3.67
2019-01-26T21:28:43.956Z,4.58
2019-01-26T21:31:23.953Z,4.00
2019-01-26T21:34:03.961Z,3.72
2019-01-26T21:36:44.209Z,3.50
2019-01-26T21:39:24.448Z,3.50
2019-01-26T21:42:04.410Z,3.60
2019-01-26T21:44:44.412Z,3.83
2019-01-26T21:47:24.381Z,3.52
2019-01-26T21:50:04.551Z,3.47
2019-01-26T21:52:44.701Z,4.20
2019-01-26T21:55:24.959Z,4.10
2019-01-26T21:58:04.889Z,4.47
2019-01-26T22:00:45.225Z,4.75
2019-01-26T22:03:25.296Z,4.40
2019-01-26T22:06:05.390Z,4.08
2019-01-26T22:08:45.748Z,3.95
2019-01-26T22:11:25.634Z,4.28
2019-01-26T22:14:05.821Z,4.00
2019-01-26T22:16:45.844Z,4.00
2019-01-26T22:19:26.000Z,3.72
2019-01-26T22:22:06.088Z,4.00
2019-01-26T22:24:46.301Z,4.40
2019-01-26T22:27:26.671Z,4.10
2019-01-26T22:30:06.708Z,3.80
2019-01-26T22:32:46.817Z,4.30
2019-01-26T22:35:26.908Z,4.50
2019-01-26T22:38:07.034Z,4.58
2019-01-26T22:40:46.907Z,4.22
2019-01-26T22:43:27.181Z,3.75
2019-01-26T22:46:07.399Z,4.87
2019-01-26T22:48:47.324Z,4.28
2019-01-26T22:51:27.285Z,3.90
2019-01-26T22:54:07.428Z,3.95
2019-01-26T22:56:47.422Z,3.35
2019-01-26T22:59:27.678Z,3.60
2019-01-26T23:02:07.860Z,3.70
2019-01-26T23:04:47.816Z,3.13
2019-01-26T23:07:28.116Z,3.20
2019-01-26T23:10:08.120Z,3.77
2019-01-26T23:12:48.166Z,3.47
2019-01-26T23:15:28.429Z,3.50
2019-01-26T23:18:12.284Z,3.50
2019-01-26T23:20:51.805Z,3.52
2019-01-26T23:23:32.081Z,3.37
2019-01-26T23:26:12.329Z,3.52
2019-01-26T23:28:52.445Z,3.50
2019-01-26T23:31:32.569Z,3.60
2019-01-26T23:34:12.720Z,3.50
2019-01-26T23:36:52.857Z,3.15
2019-01-26T23:39:33.720Z,3.50
2019-01-26T23:42:14.067Z,3.12
2019-01-26T23:44:54.114Z,3.05
2019-01-26T23:47:34.325Z,3.05
2019-01-26T23:50:14.524Z,3.00
2019-01-26T23:52:54.773Z,2.98
2019-01-26T23:55:35.011Z,3.50
2019-01-26T23:58:15.129Z,2.65
